createdAt,value
2018-05-17T00:00:43.643Z,101370.04
2018-05-17T00:03:18.779Z,101367.72
2018-05-17T00:05:54.349Z,101371.89
2018-05-17T00:08:29.434Z,101379.81
2018-05-17T00:11:04.266Z,101380.13
2018-05-17T00:13:39.566Z,101381.86
2018-05-17T00:16:14.783Z,101385.20
2018-05-17T00:18:50.235Z,101386.94
2018-05-17T00:21:25.603Z,101386.44
2018-05-17T00:24:01.471Z,101381.48
2018-05-17T00:26:36.081Z,101382.19
2018-05-17T00:29:10.958Z,101389.64
2018-05-17T00:31:46.304Z,101384.56
2018-05-17T00:34:21.233Z,101392.13
2018-05-17T00:36:55.943Z,101387.58
2018-05-17T00:39:30.780Z,101389.37
2018-05-17T00:42:05.493Z,101389.75
2018-05-17T00:44:40.494Z,101388.46
2018-05-17T00:47:15.566Z,101392.02
2018-05-17T00:49:50.487Z,101373.56
2018-05-17T00:52:25.774Z,101383.06
2018-05-17T00:55:00.842Z,101389.43
2018-05-17T00:57:35.855Z,101384.82
2018-05-17T01:00:12.677Z,101382.39
2018-05-17T01:02:47.665Z,101385.59
2018-05-17T01:05:22.613Z,101384.41
2018-05-17T01:07:57.133Z,101384.18
2018-05-17T01:10:32.515Z,101388.34
2018-05-17T01:13:07.404Z,101380.38
2018-05-17T01:15:42.753Z,101386.03
2018-05-17T01:18:17.553Z,101386.88
2018-05-17T01:20:52.565Z,101373.34
2018-05-17T01:23:27.802Z,101380.46
2018-05-17T01:26:03.054Z,101378.47
2018-05-17T01:28:37.873Z,101374.30
2018-05-17T01:31:12.965Z,101376.27
2018-05-17T01:33:48.578Z,101385.80
2018-05-17T01:36:23.061Z,101380.90
2018-05-17T01:38:57.971Z,101384.83
2018-05-17T01:41:33.459Z,101390.28
2018-05-17T01:44:08.549Z,101382.68
2018-05-17T01:46:43.862Z,101391.16
2018-05-17T01:49:18.830Z,101387.69
2018-05-17T01:51:53.653Z,101393.28
2018-05-17T01:54:28.774Z,101392.69
2018-05-17T01:57:03.781Z,101395.77
2018-05-17T01:59:38.651Z,101393.98
2018-05-17T02:02:13.784Z,101397.71
2018-05-17T02:04:48.625Z,101386.92
2018-05-17T02:07:23.733Z,101391.09
2018-05-17T02:09:58.881Z,101397.70
2018-05-17T02:12:33.858Z,101400.08
2018-05-17T02:15:09.186Z,101402.71
2018-05-17T02:17:44.677Z,101399.63
2018-05-17T02:20:19.891Z,101400.98
2018-05-17T02:22:54.842Z,101404.38
2018-05-17T02:25:29.781Z,101392.56
2018-05-17T02:28:04.428Z,101404.92
2018-05-17T02:30:39.718Z,101407.30
2018-05-17T02:33:14.942Z,101401.14
2018-05-17T02:35:49.977Z,101410.95
2018-05-17T02:38:24.983Z,101404.55
2018-05-17T02:41:00.110Z,101407.82
2018-05-17T02:43:35.190Z,101412.36
2018-05-17T02:46:10.987Z,101408.84
2018-05-17T02:48:45.731Z,101412.03
2018-05-17T02:51:20.973Z,101406.69
2018-05-17T02:53:56.113Z,101408.98
2018-05-17T02:56:31.335Z,101411.09
2018-05-17T02:59:06.401Z,101408.41
2018-05-17T03:01:41.186Z,101405.65
2018-05-17T03:04:16.106Z,101420.08
2018-05-17T03:06:51.242Z,101414.44
2018-05-17T03:09:26.290Z,101414.78
2018-05-17T03:12:00.893Z,101417.39
2018-05-17T03:14:36.036Z,101417.78
2018-05-17T03:17:11.666Z,101420.69
2018-05-17T03:19:46.756Z,101416.64
2018-05-17T03:22:22.073Z,101414.08
2018-05-17T03:24:57.059Z,101422.46
2018-05-17T03:27:31.767Z,101407.39
2018-05-17T03:30:06.380Z,101417.25
2018-05-17T03:32:41.403Z,101422.53
2018-05-17T03:35:17.146Z,101425.66
2018-05-17T03:37:52.074Z,101425.12
2018-05-17T03:40:27.149Z,101432.77
2018-05-17T03:43:02.031Z,101426.55
2018-05-17T03:45:37.669Z,101426.08
2018-05-17T03:48:13.503Z,101429.73
2018-05-17T03:50:48.988Z,101427.95
2018-05-17T03:53:24.805Z,101426.33
2018-05-17T03:55:59.942Z,101421.47
2018-05-17T03:58:35.012Z,101425.04
2018-05-17T04:01:21.270Z,101423.70
2018-05-17T04:04:07.122Z,101421.27
2018-05-17T04:06:41.369Z,101425.48
2018-05-17T04:09:16.938Z,101431.39
2018-05-17T04:11:51.462Z,101426.14
2018-05-17T04:14:26.823Z,101425.81
2018-05-17T04:17:01.881Z,101426.42
2018-05-17T04:19:36.846Z,101428.79
2018-05-17T04:22:13.328Z,101439.01
2018-05-17T04:24:47.889Z,101440.94
2018-05-17T04:27:23.166Z,101440.63
2018-05-17T04:29:58.014Z,101449.20
2018-05-17T04:32:33.194Z,101453.52
2018-05-17T04:35:08.842Z,101447.27
2018-05-17T04:37:43.967Z,101445.27
2018-05-17T04:40:19.162Z,101447.14
2018-05-17T04:42:54.031Z,101445.19
2018-05-17T04:45:29.182Z,101447.94
2018-05-17T04:48:04.062Z,101444.36
2018-05-17T04:50:39.096Z,101450.20
2018-05-17T04:53:13.722Z,101448.25
2018-05-17T04:55:49.003Z,101449.32
2018-05-17T04:58:24.093Z,101449.78
2018-05-17T05:00:59.237Z,101456.08
2018-05-17T05:03:34.149Z,101461.52
2018-05-17T05:06:09.318Z,101455.45
2018-05-17T05:08:44.541Z,101453.36
2018-05-17T05:11:19.278Z,101457.42
2018-05-17T05:13:54.036Z,101454.81
2018-05-17T05:16:28.985Z,101454.31
2018-05-17T05:19:04.226Z,101452.03
2018-05-17T05:21:39.317Z,101454.82
2018-05-17T05:24:14.550Z,101457.17
2018-05-17T05:26:49.546Z,101448.95
2018-05-17T05:29:24.546Z,101448.84
2018-05-17T05:31:59.455Z,101456.72
2018-05-17T05:34:34.986Z,101462.83
2018-05-17T05:37:10.119Z,101467.17
2018-05-17T05:39:45.043Z,101466.73
2018-05-17T05:42:20.130Z,101468.85
2018-05-17T05:44:54.937Z,101464.42
2018-05-17T05:47:31.174Z,101468.52
2018-05-17T05:50:05.803Z,101471.93
2018-05-17T05:52:40.775Z,101475.55
2018-05-17T05:55:15.206Z,101478.44
2018-05-17T05:57:50.156Z,101474.66
2018-05-17T06:00:25.123Z,101472.02
2018-05-17T06:03:00.358Z,101471.58
2018-05-17T06:05:35.433Z,101470.67
2018-05-17T06:08:11.131Z,101482.97
2018-05-17T06:10:45.778Z,101483.28
2018-05-17T06:13:20.779Z,101472.09
2018-05-17T06:15:56.115Z,101467.69
2018-05-17T06:18:31.186Z,101478.86
2018-05-17T06:21:06.335Z,101484.97
2018-05-17T06:23:41.347Z,101484.21
2018-05-17T06:26:16.351Z,101489.47
2018-05-17T06:28:51.335Z,101490.22
2018-05-17T06:31:26.412Z,101494.08
2018-05-17T06:34:01.519Z,101491.81
2018-05-17T06:36:36.476Z,101491.48
2018-05-17T06:39:11.398Z,101493.12
2018-05-17T06:41:46.440Z,101496.91
2018-05-17T06:44:21.561Z,101490.55
2018-05-17T06:46:56.621Z,101489.22
2018-05-17T06:49:31.798Z,101493.00
2018-05-17T06:52:06.857Z,101491.31
2018-05-17T06:54:41.542Z,101486.92
2018-05-17T06:57:16.743Z,101488.93
2018-05-17T06:59:51.780Z,101492.06
2018-05-17T07:02:26.637Z,101494.92
2018-05-17T07:05:01.510Z,101488.72
2018-05-17T07:07:36.583Z,101492.06
2018-05-17T07:10:11.246Z,101490.63
2018-05-17T07:12:46.381Z,101489.81
2018-05-17T07:15:21.557Z,101496.20
2018-05-17T07:17:56.222Z,101496.56
2018-05-17T07:20:31.443Z,101497.35
2018-05-17T07:23:06.798Z,101509.58
2018-05-17T07:25:41.860Z,101500.36
2018-05-17T07:28:17.454Z,101504.64
2018-05-17T07:30:52.747Z,101503.64
2018-05-17T07:33:28.057Z,101503.73
2018-05-17T07:36:03.342Z,101497.10
2018-05-17T07:38:38.363Z,101496.00
2018-05-17T07:41:13.879Z,101496.11
2018-05-17T07:43:48.555Z,101501.59
2018-05-17T07:46:23.438Z,101495.45
2018-05-17T07:48:57.986Z,101496.50
2018-05-17T07:51:32.767Z,101494.05
2018-05-17T07:54:07.669Z,101498.80
2018-05-17T07:56:42.874Z,101501.57
2018-05-17T07:59:17.732Z,101498.52
2018-05-17T08:01:52.820Z,101501.91
2018-05-17T08:04:27.737Z,101507.83
2018-05-17T08:07:02.474Z,101508.64
2018-05-17T08:09:37.681Z,101516.20
2018-05-17T08:12:13.830Z,101509.41
2018-05-17T08:14:48.869Z,101509.50
2018-05-17T08:17:24.408Z,101505.58
2018-05-17T08:19:59.419Z,101510.99
2018-05-17T08:22:34.355Z,101508.72
2018-05-17T08:25:08.685Z,101516.45
2018-05-17T08:27:44.043Z,101521.13
2018-05-17T08:30:19.279Z,101520.33
2018-05-17T08:32:54.203Z,101519.49
2018-05-17T08:35:29.519Z,101518.34
2018-05-17T08:38:04.601Z,101512.88
2018-05-17T08:40:39.845Z,101516.45
2018-05-17T08:43:14.589Z,101515.88
2018-05-17T08:45:49.608Z,101515.88
2018-05-17T08:48:24.962Z,101510.97
2018-05-17T08:50:59.882Z,101516.70
2018-05-17T08:53:34.363Z,101519.88
2018-05-17T08:56:09.914Z,101512.09
2018-05-17T08:58:45.433Z,101517.59
2018-05-17T09:01:20.625Z,101517.05
2018-05-17T09:03:55.590Z,101513.00
2018-05-17T09:06:30.862Z,101522.36
2018-05-17T09:09:05.957Z,101519.98
2018-05-17T09:11:41.292Z,101519.19
2018-05-17T09:14:16.606Z,101520.48
2018-05-17T09:16:51.530Z,101529.23
2018-05-17T09:19:26.685Z,101526.04
2018-05-17T09:22:01.619Z,101532.36
2018-05-17T09:24:36.655Z,101529.83
2018-05-17T09:27:11.753Z,101538.31
2018-05-17T09:29:46.774Z,101533.34
2018-05-17T09:32:22.001Z,101530.55
2018-05-17T09:34:56.837Z,101536.80
2018-05-17T09:37:32.058Z,101535.95
2018-05-17T09:40:07.213Z,101517.78
2018-05-17T09:42:42.030Z,101521.13
2018-05-17T09:45:17.806Z,101525.56
2018-05-17T09:47:52.192Z,101527.77
2018-05-17T09:50:27.783Z,101530.79
2018-05-17T09:53:02.780Z,101530.95
2018-05-17T09:55:37.885Z,101533.66
2018-05-17T09:58:13.986Z,101531.64
2018-05-17T10:00:48.698Z,101509.60
2018-05-17T10:03:23.939Z,101525.43
2018-05-17T10:05:58.853Z,101525.38
2018-05-17T10:08:33.930Z,101526.91
2018-05-17T10:11:09.158Z,101522.80
2018-05-17T10:13:44.306Z,101532.16
2018-05-17T10:16:19.203Z,101511.53
2018-05-17T10:18:54.438Z,101507.52
2018-05-17T10:21:29.591Z,101514.33
2018-05-17T10:24:04.242Z,101517.48
2018-05-17T10:26:39.251Z,101505.86
2018-05-17T10:29:14.366Z,101501.52
2018-05-17T10:31:49.270Z,101510.39
2018-05-17T10:34:24.358Z,101510.33
2018-05-17T10:36:59.722Z,101511.40
2018-05-17T10:39:34.666Z,101509.98
2018-05-17T10:42:09.893Z,101505.40
2018-05-17T10:44:44.808Z,101505.50
2018-05-17T10:47:19.735Z,101499.57
2018-05-17T10:49:54.384Z,101500.52
2018-05-17T10:52:29.010Z,101492.11
2018-05-17T10:55:03.799Z,101491.75
2018-05-17T10:57:38.274Z,101499.14
2018-05-17T11:00:14.279Z,101498.66
2018-05-17T11:02:48.842Z,101496.05
2018-05-17T11:05:24.210Z,101490.02
2018-05-17T11:07:59.147Z,101497.38
2018-05-17T11:10:34.577Z,101495.41
2018-05-17T11:13:09.302Z,101484.48
2018-05-17T11:15:44.247Z,101484.52
2018-05-17T11:18:19.963Z,101492.05
2018-05-17T11:20:54.426Z,101485.99
2018-05-17T11:23:29.548Z,101486.92
2018-05-17T11:26:04.295Z,101485.88
2018-05-17T11:28:39.108Z,101489.64
2018-05-17T11:31:14.311Z,101483.42
2018-05-17T11:33:49.077Z,101493.42
2018-05-17T11:36:23.999Z,101487.96
2018-05-17T11:38:58.929Z,101502.92
2018-05-17T11:41:34.456Z,101495.45
2018-05-17T11:44:09.466Z,101493.12
2018-05-17T11:46:44.595Z,101491.59
2018-05-17T11:49:20.213Z,101495.58
2018-05-17T11:51:55.063Z,101495.64
2018-05-17T11:54:30.293Z,101495.95
2018-05-17T11:57:05.426Z,101494.13
2018-05-17T11:59:41.006Z,101486.75
2018-05-17T12:02:16.295Z,101488.81
2018-05-17T12:04:51.165Z,101484.66
2018-05-17T12:07:26.672Z,101490.32
2018-05-17T12:10:01.632Z,101482.10
2018-05-17T12:12:36.998Z,101492.72
2018-05-17T12:15:12.274Z,101488.53
2018-05-17T12:17:47.651Z,101481.69
2018-05-17T12:20:22.567Z,101484.44
2018-05-17T12:22:57.611Z,101488.13
2018-05-17T12:25:32.737Z,101485.96
2018-05-17T12:28:08.316Z,101490.77
2018-05-17T12:30:43.153Z,101487.11
2018-05-17T12:33:18.284Z,101487.77
2018-05-17T12:35:52.699Z,101489.72
2018-05-17T12:38:27.658Z,101491.08
2018-05-17T12:41:02.554Z,101483.72
2018-05-17T12:43:37.311Z,101487.77
2018-05-17T12:46:12.515Z,101493.42
2018-05-17T12:48:47.553Z,101493.78
2018-05-17T12:51:22.519Z,101495.02
2018-05-17T12:53:57.606Z,101492.86
2018-05-17T12:56:32.613Z,101485.18
2018-05-17T12:59:08.128Z,101479.83
2018-05-17T13:01:43.230Z,101493.64
2018-05-17T13:04:18.398Z,101491.88
2018-05-17T13:06:53.136Z,101484.47
2018-05-17T13:09:28.094Z,101482.71
2018-05-17T13:12:03.379Z,101477.20
2018-05-17T13:14:38.261Z,101479.48
2018-05-17T13:17:14.578Z,101485.23
2018-05-17T13:19:50.146Z,101490.91
2018-05-17T13:22:26.082Z,101486.14
2018-05-17T13:25:01.317Z,101491.76
2018-05-17T13:27:36.110Z,101490.40
2018-05-17T13:30:11.494Z,101501.84
2018-05-17T13:32:46.738Z,101499.64
2018-05-17T13:35:21.538Z,101503.21
2018-05-17T13:37:56.300Z,101495.39
2018-05-17T13:40:31.539Z,101506.99
2018-05-17T13:43:06.487Z,101495.47
2018-05-17T13:45:41.358Z,101500.56
2018-05-17T13:48:16.581Z,101502.08
2018-05-17T13:50:51.457Z,101498.69
2018-05-17T13:53:26.668Z,101497.80
2018-05-17T13:56:01.693Z,101495.08
2018-05-17T13:58:36.507Z,101497.72
2018-05-17T14:01:11.540Z,101493.20
2018-05-17T14:03:46.566Z,101502.08
2018-05-17T14:06:21.773Z,101499.70
2018-05-17T14:08:56.846Z,101495.61
2018-05-17T14:11:31.878Z,101489.27
2018-05-17T14:14:07.035Z,101488.74
2018-05-17T14:16:42.414Z,101489.95
2018-05-17T14:19:17.307Z,101491.31
2018-05-17T14:21:52.463Z,101497.22
2018-05-17T14:24:27.734Z,101493.95
2018-05-17T14:27:02.526Z,101496.02
2018-05-17T14:29:37.485Z,101493.53
2018-05-17T14:32:12.707Z,101496.69
2018-05-17T14:34:47.474Z,101501.28
2018-05-17T14:37:22.471Z,101502.98
2018-05-17T14:39:57.506Z,101501.25
2018-05-17T14:42:32.785Z,101514.49
2018-05-17T14:45:07.610Z,101513.00
2018-05-17T14:47:42.538Z,101511.23
2018-05-17T14:50:17.845Z,101512.61
2018-05-17T14:52:53.353Z,101512.34
2018-05-17T14:55:28.454Z,101514.30
2018-05-17T14:58:03.527Z,101512.60
2018-05-17T15:00:38.393Z,101517.12
2018-05-17T15:03:14.867Z,101521.02
2018-05-17T15:05:49.582Z,101515.77
2018-05-17T15:08:24.642Z,101513.78
2018-05-17T15:10:59.811Z,101511.02
2018-05-17T15:13:35.108Z,101511.20
2018-05-17T15:16:11.246Z,101517.34
2018-05-17T15:18:46.559Z,101518.55
2018-05-17T15:21:21.646Z,101512.09
2018-05-17T15:23:56.415Z,101515.82
2018-05-17T15:26:31.642Z,101514.44
2018-05-17T15:29:06.635Z,101519.44
2018-05-17T15:31:41.096Z,101513.55
2018-05-17T15:34:16.706Z,101523.69
2018-05-17T15:36:51.494Z,101518.05
2018-05-17T15:39:26.683Z,101515.27
2018-05-17T15:42:01.858Z,101515.25
2018-05-17T15:44:36.839Z,101512.68
2018-05-17T15:47:12.306Z,101510.21
2018-05-17T15:49:47.763Z,101508.85
2018-05-17T15:52:23.059Z,101516.24
2018-05-17T15:54:58.342Z,101513.83
2018-05-17T15:57:33.573Z,101514.80
2018-05-17T16:00:08.154Z,101506.97
2018-05-17T16:02:42.805Z,101517.77
2018-05-17T16:05:17.880Z,101509.44
2018-05-17T16:07:52.794Z,101514.80
2018-05-17T16:10:27.921Z,101516.48
2018-05-17T16:13:02.695Z,101515.89
2018-05-17T16:15:37.920Z,101517.59
2018-05-17T16:18:13.138Z,101515.50
2018-05-17T16:20:48.075Z,101519.13
2018-05-17T16:23:22.774Z,101514.55
2018-05-17T16:25:57.726Z,101519.30
2018-05-17T16:28:32.908Z,101512.72
2018-05-17T16:31:07.752Z,101514.08
2018-05-17T16:33:42.970Z,101511.50
2018-05-17T16:36:18.215Z,101512.55
2018-05-17T16:38:53.034Z,101507.20
2018-05-17T16:41:28.085Z,101506.64
2018-05-17T16:44:02.954Z,101512.19
2018-05-17T16:46:37.534Z,101516.85
2018-05-17T16:49:11.985Z,101522.59
2018-05-17T16:51:48.726Z,101524.67
2018-05-17T16:54:23.970Z,101521.12
2018-05-17T16:56:59.022Z,101524.44
2018-05-17T16:59:34.259Z,101520.52
2018-05-17T17:02:09.786Z,101527.77
2018-05-17T17:04:44.800Z,101532.98
2018-05-17T17:07:20.010Z,101536.65
2018-05-17T17:09:54.930Z,101524.31
2018-05-17T17:12:30.095Z,101530.98
2018-05-17T17:15:05.234Z,101534.80
2018-05-17T17:17:40.319Z,101528.77
2018-05-17T17:20:14.923Z,101531.70
2018-05-17T17:22:50.220Z,101531.45
2018-05-17T17:25:25.127Z,101534.89
2018-05-17T17:28:00.325Z,101545.25
2018-05-17T17:30:35.651Z,101535.72
2018-05-17T17:33:10.377Z,101531.33
2018-05-17T17:35:45.802Z,101536.86
2018-05-17T17:38:21.002Z,101529.00
2018-05-17T17:40:55.954Z,101527.42
2018-05-17T17:43:31.349Z,101532.55
2018-05-17T17:46:06.226Z,101544.28
2018-05-17T17:48:41.274Z,101539.77
2018-05-17T17:51:17.158Z,101535.66
2018-05-17T17:53:51.979Z,101540.38
2018-05-17T17:56:27.116Z,101541.57
2018-05-17T17:59:02.178Z,101539.24
2018-05-17T18:01:37.377Z,101542.64
2018-05-17T18:04:12.958Z,101536.42
2018-05-17T18:06:47.965Z,101537.69
2018-05-17T18:09:22.967Z,101529.89
2018-05-17T18:11:58.062Z,101535.98
2018-05-17T18:14:33.317Z,101539.63
2018-05-17T18:17:08.396Z,101537.69
2018-05-17T18:19:43.485Z,101545.34
2018-05-17T18:22:18.595Z,101545.19
2018-05-17T18:24:53.586Z,101546.32
2018-05-17T18:27:29.619Z,101539.23
2018-05-17T18:30:04.238Z,101539.90
2018-05-17T18:32:39.417Z,101535.06
2018-05-17T18:35:15.106Z,101543.66
2018-05-17T18:37:50.370Z,101540.22
2018-05-17T18:40:25.467Z,101536.28
2018-05-17T18:43:00.638Z,101544.41
2018-05-17T18:45:35.472Z,101546.11
2018-05-17T18:48:10.138Z,101552.21
2018-05-17T18:50:44.666Z,101547.73
2018-05-17T18:53:19.826Z,101557.87
2018-05-17T18:55:54.817Z,101549.11
2018-05-17T18:58:30.135Z,101556.36
2018-05-17T19:01:04.867Z,101562.59
2018-05-17T19:03:40.015Z,101554.03
2018-05-17T19:06:15.478Z,101564.10
2018-05-17T19:08:50.606Z,101566.21
2018-05-17T19:11:25.669Z,101568.60
2018-05-17T19:14:01.021Z,101563.22
2018-05-17T19:16:36.359Z,101567.16
2018-05-17T19:19:11.181Z,101576.91
2018-05-17T19:21:46.615Z,101579.23
2018-05-17T19:24:22.235Z,101578.73
2018-05-17T19:26:57.630Z,101584.42
2018-05-17T19:29:33.031Z,101592.30
2018-05-17T19:32:08.456Z,101584.77
2018-05-17T19:34:43.575Z,101600.77
2018-05-17T19:37:18.613Z,101602.19
2018-05-17T19:39:53.902Z,101601.91
2018-05-17T19:42:29.390Z,101597.09
2018-05-17T19:45:03.909Z,101600.17
2018-05-17T19:47:38.915Z,101602.46
2018-05-17T19:50:13.993Z,101608.20
2018-05-17T19:52:48.674Z,101607.27
2018-05-17T19:55:23.490Z,101610.72
2018-05-17T19:57:58.513Z,101610.05
2018-05-17T20:00:33.494Z,101606.84
2018-05-17T20:03:08.559Z,101615.27
2018-05-17T20:05:43.642Z,101616.57
2018-05-17T20:08:18.950Z,101623.92
2018-05-17T20:10:53.641Z,101616.95
2018-05-17T20:13:28.052Z,101622.95
2018-05-17T20:16:03.964Z,101614.44
2018-05-17T20:18:39.174Z,101623.15
2018-05-17T20:21:15.894Z,101622.36
2018-05-17T20:23:51.149Z,101626.13
2018-05-17T20:26:26.019Z,101618.59
2018-05-17T20:29:01.093Z,101625.82
2018-05-17T20:31:36.562Z,101629.66
2018-05-17T20:34:11.870Z,101627.84
2018-05-17T20:36:47.555Z,101628.81
2018-05-17T20:39:22.642Z,101626.95
2018-05-17T20:41:57.776Z,101631.66
2018-05-17T20:44:33.003Z,101629.34
2018-05-17T20:47:07.925Z,101624.89
2018-05-17T20:49:42.898Z,101628.44
2018-05-17T20:52:17.833Z,101627.86
2018-05-17T20:54:52.670Z,101627.09
2018-05-17T20:57:27.855Z,101630.91
2018-05-17T21:00:02.738Z,101636.05
2018-05-17T21:02:37.539Z,101627.59
2018-05-17T21:05:12.911Z,101625.53
2018-05-17T21:07:47.831Z,101624.55
2018-05-17T21:10:22.942Z,101633.18
2018-05-17T21:12:58.007Z,101636.58
2018-05-17T21:15:32.594Z,101634.12
2018-05-17T21:18:07.866Z,101634.03
2018-05-17T21:20:42.883Z,101635.58
2018-05-17T21:23:18.186Z,101631.00
2018-05-17T21:25:53.817Z,101640.80
2018-05-17T21:28:29.649Z,101638.28
2018-05-17T21:31:04.689Z,101637.60
2018-05-17T21:33:39.739Z,101633.94
2018-05-17T21:36:16.035Z,101636.72
2018-05-17T21:38:50.708Z,101635.32
2018-05-17T21:41:25.962Z,101629.91
2018-05-17T21:44:00.943Z,101628.18
2018-05-17T21:46:35.442Z,101638.43
2018-05-17T21:49:10.886Z,101635.22
2018-05-17T21:51:45.954Z,101631.48
2018-05-17T21:54:21.586Z,101639.63
2018-05-17T21:56:56.716Z,101638.48
2018-05-17T21:59:31.950Z,101635.70
2018-05-17T22:02:07.016Z,101638.16
2018-05-17T22:04:41.746Z,101637.13
2018-05-17T22:07:18.975Z,101636.36
2018-05-17T22:09:53.699Z,101625.84
2018-05-17T22:12:28.990Z,101631.23
2018-05-17T22:15:03.785Z,101627.16
2018-05-17T22:17:38.938Z,101622.02
2018-05-17T22:20:13.035Z,101628.00
2018-05-17T22:22:49.277Z,101624.51
2018-05-17T22:25:24.720Z,101631.77
2018-05-17T22:27:59.850Z,101627.23
2018-05-17T22:30:34.574Z,101631.20
2018-05-17T22:33:10.059Z,101632.05
2018-05-17T22:35:45.363Z,101627.67
2018-05-17T22:38:20.090Z,101635.88
2018-05-17T22:40:55.233Z,101631.64
2018-05-17T22:43:30.400Z,101629.23
2018-05-17T22:46:05.745Z,101630.27
2018-05-17T22:48:40.656Z,101629.56
2018-05-17T22:51:16.722Z,101632.95
2018-05-17T22:53:51.259Z,101622.27
2018-05-17T22:56:37.383Z,101622.69
2018-05-17T22:59:12.294Z,101624.77
2018-05-17T23:01:47.426Z,101621.06
2018-05-17T23:04:22.967Z,101623.63
2018-05-17T23:06:57.630Z,101623.24
2018-05-17T23:09:32.797Z,101618.04
2018-05-17T23:12:08.264Z,101615.31
2018-05-17T23:14:43.970Z,101618.87
2018-05-17T23:17:19.050Z,101611.41
2018-05-17T23:19:53.972Z,101620.73
2018-05-17T23:22:35.487Z,101620.91
2018-05-17T23:25:10.671Z,101615.23
2018-05-17T23:27:45.955Z,101625.52
2018-05-17T23:30:20.249Z,101619.94
2018-05-17T23:32:55.093Z,101619.55
2018-05-17T23:35:31.187Z,101614.69
2018-05-17T23:38:06.028Z,101622.83
2018-05-17T23:54:14.026Z,101612.76
2018-05-17T23:56:49.371Z,101607.53
2018-05-17T23:59:24.059Z,101603.05
